Time;durP1;ratioP1;P1;durP2;ratioP2;P2;SDS_P1;SDS_P2;PMS_P1;PMS_P2;Temp;Humidity;BMP_temperature;BMP_pressure;BME280_temperature;BME280_humidity;BME280_pressure;Samples;Min_cycle;Max_cycle;Signal;HPM_P1;HPM_P2
2023/12/24 00:02:00;;;;;;;1.45;0.43;;;21.30;51.30;;;;;;4978334;28;20038;-66
2023/12/24 00:04:26;;;;;;;0.82;0.40;;;21.30;51.20;;;;;;4979031;28;20042;-66
2023/12/24 00:06:52;;;;;;;0.40;0.35;;;21.30;51.80;;;;;;4981190;28;20443;-66
2023/12/24 00:09:17;;;;;;;0.63;0.43;;;21.20;51.20;;;;;;4979140;28;20042;-66
2023/12/24 00:11:43;;;;;;;0.88;0.40;;;21.20;51.20;;;;;;4979170;28;20478;-65
2023/12/24 00:14:08;;;;;;;1.10;0.50;;;21.20;51.20;;;;;;4979294;28;20100;-68
2023/12/24 00:16:38;;;;;;;0.40;0.40;;;21.20;51.20;;;;;;4980295;28;20054;-66
2023/12/24 00:19:04;;;;;;;0.40;0.40;;;21.20;51.30;;;;;;4979674;28;20061;-66
2023/12/24 00:21:29;;;;;;;0.55;0.50;;;21.20;51.40;;;;;;4980412;28;20488;-65
2023/12/24 00:23:55;;;;;;;0.40;0.40;;;21.20;51.40;;;;;;4976978;28;20023;-66
2023/12/24 00:26:21;;;;;;;1.67;0.50;;;21.10;51.50;;;;;;4980174;28;20115;-66
2023/12/24 00:28:49;;;;;;;0.82;0.50;;;21.10;51.60;;;;;;4981960;28;20018;-65
2023/12/24 00:31:14;;;;;;;1.45;0.50;;;21.10;51.50;;;;;;4981127;28;20541;-66
2023/12/24 00:33:40;;;;;;;0.70;0.40;;;21.10;51.40;;;;;;4982977;28;20046;-66
2023/12/24 00:36:06;;;;;;;0.40;0.32;;;21.10;51.40;;;;;;4983650;28;20073;-67
2023/12/24 00:38:31;;;;;;;1.90;0.40;;;21.10;51.50;;;;;;4983054;28;20042;-67
2023/12/24 00:40:57;;;;;;;0.57;0.50;;;21.00;51.20;;;;;;4984270;28;20034;-67
2023/12/24 00:43:23;;;;;;;0.82;0.50;;;21.00;51.40;;;;;;4995595;28;20019;-67
2023/12/24 00:45:49;;;;;;;0.68;0.40;;;21.10;51.40;;;;;;4984356;28;20027;-67
2023/12/24 00:48:15;;;;;;;0.30;0.30;;;21.00;51.40;;;;;;4981680;28;20109;-67
2023/12/24 00:50:40;;;;;;;0.50;0.43;;;21.00;51.80;;;;;;4982726;28;20032;-66
2023/12/24 00:53:06;;;;;;;1.30;0.50;;;21.00;51.40;;;;;;4983161;28;20479;-66
2023/12/24 00:55:32;;;;;;;0.25;0.25;;;21.00;51.50;;;;;;4981093;28;20062;-70
2023/12/24 00:57:57;;;;;;;0.30;0.30;;;21.00;51.50;;;;;;4982181;28;20513;-69
2023/12/24 01:00:23;;;;;;;0.50;0.50;;;20.90;51.50;;;;;;4982718;28;20474;-69
2023/12/24 01:02:48;;;;;;;1.20;0.70;;;21.00;51.50;;;;;;4981729;28;20030;-69
2023/12/24 01:05:14;;;;;;;0.63;0.50;;;20.90;51.60;;;;;;4982707;28;20146;-69
2023/12/24 01:07:40;;;;;;;1.00;0.40;;;20.90;51.60;;;;;;4982293;28;20034;-69
2023/12/24 01:10:06;;;;;;;0.73;0.47;;;20.90;51.60;;;;;;4980885;28;20038;-69
2023/12/24 01:12:32;;;;;;;0.68;0.50;;;20.90;51.50;;;;;;4982835;28;20027;-69
2023/12/24 01:14:58;;;;;;;0.28;0.28;;;20.90;51.50;;;;;;4980427;28;20041;-69
2023/12/24 01:17:24;;;;;;;0.40;0.30;;;20.80;51.60;;;;;;4979681;28;20030;-69
2023/12/24 01:19:49;;;;;;;0.77;0.35;;;20.80;51.60;;;;;;4980190;28;20431;-69
2023/12/24 01:22:15;;;;;;;0.55;0.50;;;20.80;51.60;;;;;;4982883;28;20462;-70
2023/12/24 01:24:41;;;;;;;0.47;0.40;;;20.70;51.50;;;;;;4996821;28;20045;-70
2023/12/24 01:27:06;;;;;;;0.38;0.38;;;20.80;51.60;;;;;;4979814;28;20031;-69
2023/12/24 01:29:32;;;;;;;0.70;0.40;;;20.80;51.50;;;;;;4981493;28;20031;-69
2023/12/24 01:31:57;;;;;;;0.50;0.40;;;20.70;51.60;;;;;;4979739;28;20483;-69
2023/12/24 01:34:23;;;;;;;0.65;0.40;;;20.70;51.60;;;;;;4981031;28;21063;-69
2023/12/24 01:36:49;;;;;;;0.40;0.40;;;20.70;52.10;;;;;;4983435;28;20031;-69
2023/12/24 01:39:15;;;;;;;0.50;0.50;;;20.70;51.60;;;;;;4982424;28;20023;-69
2023/12/24 01:41:43;;;;;;;0.70;0.50;;;20.70;51.60;;;;;;4979338;28;20070;-69
2023/12/24 01:44:09;;;;;;;0.68;0.40;;;20.70;51.60;;;;;;4980699;28;20035;-68
2023/12/24 01:46:34;;;;;;;0.30;0.30;;;20.70;52.20;;;;;;4978693;28;20483;-68
2023/12/24 01:49:01;;;;;;;0.40;0.40;;;20.60;51.70;;;;;;4978986;28;20038;-68
2023/12/24 01:51:31;;;;;;;0.65;0.40;;;20.60;51.70;;;;;;4981297;28;20066;-68
2023/12/24 01:53:57;;;;;;;0.90;0.40;;;20.60;51.70;;;;;;4980536;28;20367;-68
2023/12/24 01:56:24;;;;;;;0.30;0.30;;;20.60;51.70;;;;;;4980702;28;20043;-68
2023/12/24 01:58:51;;;;;;;0.52;0.40;;;20.60;51.60;;;;;;4982642;28;20081;-68
2023/12/24 02:01:17;;;;;;;0.50;0.50;;;20.50;51.70;;;;;;4981292;28;20049;-68
2023/12/24 02:03:43;;;;;;;0.30;0.30;;;20.50;51.70;;;;;;4982912;28;20046;-66
2023/12/24 02:06:09;;;;;;;0.50;0.40;;;20.50;51.70;;;;;;4980611;28;20108;-66
2023/12/24 02:08:36;;;;;;;0.30;0.30;;;20.50;51.70;;;;;;4996944;28;20041;-66
2023/12/24 02:11:03;;;;;;;0.80;0.45;;;20.50;51.70;;;;;;4982170;28;20045;-67
2023/12/24 02:13:30;;;;;;;0.30;0.30;;;20.50;51.80;;;;;;4981865;28;20033;-68
2023/12/24 02:15:58;;;;;;;1.35;0.40;;;20.50;51.80;;;;;;4977957;28;20493;-68
2023/12/24 02:18:24;;;;;;;0.50;0.40;;;20.50;52.30;;;;;;4977711;28;20395;-68
2023/12/24 02:20:50;;;;;;;0.88;0.40;;;20.40;51.70;;;;;;4981172;28;20028;-68
2023/12/24 02:23:16;;;;;;;0.30;0.30;;;20.40;51.80;;;;;;4981302;28;20384;-68
2023/12/24 02:25:42;;;;;;;0.57;0.30;;;20.40;51.80;;;;;;4979310;28;20033;-68
2023/12/24 02:28:15;;;;;;;0.30;0.30;;;20.40;51.80;;;;;;4994805;28;20129;-68
2023/12/24 02:30:47;;;;;;;0.30;0.30;;;20.40;51.90;;;;;;4979573;28;20030;-67
2023/12/24 02:33:15;;;;;;;0.60;0.30;;;20.40;51.90;;;;;;4982209;28;20037;-68
2023/12/24 02:35:43;;;;;;;0.30;0.30;;;20.30;51.80;;;;;;4980343;28;20399;-68
2023/12/24 02:38:09;;;;;;;0.40;0.40;;;20.30;51.90;;;;;;4980592;28;20026;-68
2023/12/24 02:40:35;;;;;;;0.20;0.20;;;20.30;51.90;;;;;;4981295;28;20479;-68
2023/12/24 02:43:00;;;;;;;0.52;0.35;;;20.30;51.90;;;;;;4980925;28;20438;-68
2023/12/24 02:45:26;;;;;;;0.30;0.30;;;20.30;52.00;;;;;;4981977;28;20041;-67
2023/12/24 02:47:51;;;;;;;0.30;0.25;;;20.30;51.90;;;;;;4980252;28;20054;-68
2023/12/24 02:50:18;;;;;;;0.52;0.30;;;20.30;52.00;;;;;;4981438;28;20494;-67
2023/12/24 02:52:44;;;;;;;0.25;0.22;;;20.20;51.90;;;;;;4981399;28;20494;-67
2023/12/24 02:55:10;;;;;;;0.20;0.20;;;20.30;51.90;;;;;;4980982;28;20114;-67
2023/12/24 02:57:36;;;;;;;0.30;0.30;;;20.20;51.90;;;;;;4979390;28;20031;-66
2023/12/24 03:00:02;;;;;;;0.32;0.32;;;20.20;51.90;;;;;;4982074;28;20467;-66
2023/12/24 03:02:27;;;;;;;0.32;0.30;;;20.20;51.90;;;;;;4975622;28;20348;-67
2023/12/24 03:04:53;;;;;;;0.38;0.38;;;20.20;52.00;;;;;;4978880;28;20475;-66
2023/12/24 03:07:18;;;;;;;0.30;0.30;;;20.20;52.00;;;;;;4978817;28;20023;-66
2023/12/24 03:09:44;;;;;;;0.35;0.30;;;20.20;52.00;;;;;;4980576;28;20518;-66
2023/12/24 03:12:10;;;;;;;0.43;0.30;;;20.20;52.00;;;;;;4977088;28;20337;-67
2023/12/24 03:14:35;;;;;;;0.30;0.30;;;20.20;52.00;;;;;;4981139;28;20034;-69
2023/12/24 03:17:01;;;;;;;0.30;0.30;;;20.10;51.90;;;;;;4978687;28;20034;-69
2023/12/24 03:19:26;;;;;;;0.20;0.20;;;20.20;52.00;;;;;;4976790;28;20497;-69
2023/12/24 03:21:52;;;;;;;0.30;0.30;;;20.20;52.00;;;;;;4977522;28;20084;-69
2023/12/24 03:24:17;;;;;;;0.40;0.40;;;20.10;52.00;;;;;;4982090;28;20026;-66
2023/12/24 03:26:43;;;;;;;0.30;0.30;;;20.10;52.00;;;;;;4978082;28;20030;-65
2023/12/24 03:29:12;;;;;;;0.38;0.38;;;20.10;52.00;;;;;;4982552;28;20153;-66
2023/12/24 03:31:37;;;;;;;0.40;0.40;;;20.10;52.00;;;;;;4979469;28;20451;-67
2023/12/24 03:34:03;;;;;;;0.28;0.25;;;20.10;52.00;;;;;;4980022;28;20105;-65
2023/12/24 03:36:29;;;;;;;0.60;0.50;;;20.10;52.00;;;;;;4981153;28;20065;-66
2023/12/24 03:38:54;;;;;;;0.30;0.30;;;20.10;52.10;;;;;;4994228;28;20133;-66
2023/12/24 03:41:20;;;;;;;0.20;0.20;;;20.10;52.10;;;;;;4979833;28;20149;-66
2023/12/24 03:43:50;;;;;;;0.47;0.30;;;20.10;52.10;;;;;;4981170;28;20034;-67
2023/12/24 03:46:20;;;;;;;0.40;0.30;;;20.00;52.00;;;;;;4978672;28;20034;-68
2023/12/24 03:48:45;;;;;;;0.45;0.28;;;20.00;52.00;;;;;;4993995;28;20030;-66
2023/12/24 03:51:11;;;;;;;0.30;0.30;;;20.00;52.00;;;;;;4977716;28;20121;-66
2023/12/24 03:53:37;;;;;;;0.20;0.20;;;20.00;52.10;;;;;;4980400;28;20393;-65
2023/12/24 03:56:04;;;;;;;0.20;0.20;;;20.00;52.10;;;;;;4978980;28;20125;-66
2023/12/24 03:58:29;;;;;;;0.40;0.30;;;20.00;52.10;;;;;;4979121;28;20038;-66
2023/12/24 04:00:55;;;;;;;0.35;0.30;;;20.00;52.10;;;;;;4978792;28;20423;-66
2023/12/24 04:03:20;;;;;;;0.30;0.30;;;20.00;52.10;;;;;;4982261;28;20097;-69
2023/12/24 04:05:46;;;;;;;0.20;0.20;;;19.90;52.10;;;;;;4984069;28;20681;-69
2023/12/24 04:08:12;;;;;;;0.30;0.20;;;19.90;52.10;;;;;;4983163;28;20058;-69
2023/12/24 04:10:39;;;;;;;0.50;0.30;;;19.90;52.10;;;;;;4983157;28;20085;-69
2023/12/24 04:13:06;;;;;;;0.57;0.43;;;19.90;52.10;;;;;;4982919;28;20525;-70
2023/12/24 04:15:32;;;;;;;0.30;0.30;;;19.90;52.10;;;;;;4982855;28;20027;-69
2023/12/24 04:17:58;;;;;;;0.20;0.20;;;19.90;52.10;;;;;;4982635;28;20015;-69
2023/12/24 04:20:23;;;;;;;0.40;0.30;;;19.90;52.20;;;;;;4983853;28;20479;-69
2023/12/24 04:22:49;;;;;;;0.32;0.30;;;19.90;52.10;;;;;;4980617;28;20053;-70
2023/12/24 04:25:15;;;;;;;0.30;0.30;;;19.90;52.20;;;;;;4982418;28;20068;-67
2023/12/24 04:27:40;;;;;;;0.20;0.20;;;19.90;52.20;;;;;;4982663;28;20443;-67
2023/12/24 04:30:06;;;;;;;0.30;0.30;;;19.90;52.20;;;;;;4982274;28;20406;-68
2023/12/24 04:32:32;;;;;;;0.30;0.30;;;19.90;52.20;;;;;;4982856;28;20035;-67
2023/12/24 04:34:58;;;;;;;0.98;0.30;;;19.90;52.20;;;;;;4982896;28;20023;-70
2023/12/24 04:37:23;;;;;;;0.30;0.30;;;19.80;52.10;;;;;;4981308;28;20037;-69
2023/12/24 04:39:49;;;;;;;0.30;0.30;;;19.80;52.10;;;;;;4983826;28;20061;-70
2023/12/24 04:42:15;;;;;;;0.20;0.20;;;19.80;52.10;;;;;;4981888;28;20029;-69
2023/12/24 04:44:40;;;;;;;0.40;0.40;;;19.80;52.10;;;;;;4982385;28;20093;-69
2023/12/24 04:47:09;;;;;;;0.20;0.20;;;19.80;52.10;;;;;;4980587;28;20027;-69
2023/12/24 04:49:35;;;;;;;0.40;0.30;;;19.80;52.10;;;;;;4980937;28;20027;-69
2023/12/24 04:52:00;;;;;;;0.20;0.20;;;19.80;52.10;;;;;;4982013;28;20837;-69
2023/12/24 04:54:27;;;;;;;0.20;0.20;;;19.80;52.10;;;;;;4982372;28;20392;-69
2023/12/24 04:56:52;;;;;;;0.25;0.20;;;19.80;52.10;;;;;;4983048;28;20026;-69
2023/12/24 04:59:18;;;;;;;0.22;0.20;;;19.80;52.10;;;;;;4979811;28;20031;-70
2023/12/24 05:01:43;;;;;;;0.25;0.20;;;19.70;52.00;;;;;;4981656;28;20031;-69
2023/12/24 05:04:09;;;;;;;0.30;0.30;;;19.80;52.10;;;;;;4981564;28;20145;-69
2023/12/24 05:06:35;;;;;;;0.30;0.30;;;19.70;52.00;;;;;;4982306;28;20037;-69
2023/12/24 05:09:00;;;;;;;0.43;0.28;;;19.70;52.10;;;;;;4982643;28;20022;-70
2023/12/24 05:11:26;;;;;;;0.30;0.22;;;19.70;52.10;;;;;;4979599;28;20530;-69
2023/12/24 05:13:52;;;;;;;0.28;0.28;;;19.70;52.10;;;;;;4979269;28;20030;-70
2023/12/24 05:16:17;;;;;;;0.25;0.25;;;19.70;52.60;;;;;;4981365;28;20059;-69
2023/12/24 05:18:43;;;;;;;0.20;0.20;;;19.70;52.10;;;;;;4981015;28;20029;-70
2023/12/24 05:21:08;;;;;;;0.28;0.28;;;19.70;52.10;;;;;;4981725;28;20077;-70
2023/12/24 05:23:34;;;;;;;0.38;0.38;;;19.70;52.10;;;;;;4997571;28;20130;-70
2023/12/24 05:26:00;;;;;;;0.30;0.20;;;19.70;52.10;;;;;;4981924;28;20030;-70
2023/12/24 05:28:25;;;;;;;0.20;0.20;;;19.70;52.10;;;;;;4982340;28;20026;-69
2023/12/24 05:30:51;;;;;;;0.40;0.40;;;19.70;52.10;;;;;;4980948;28;20039;-69
2023/12/24 05:33:17;;;;;;;0.20;0.20;;;19.70;52.10;;;;;;4980529;28;20031;-66
2023/12/24 05:35:42;;;;;;;0.28;0.28;;;19.70;52.10;;;;;;4979754;28;20375;-67
2023/12/24 05:38:08;;;;;;;0.30;0.30;;;19.70;52.00;;;;;;4983481;28;20472;-67
2023/12/24 05:40:33;;;;;;;0.20;0.20;;;19.60;52.00;;;;;;4980883;28;20030;-66
2023/12/24 05:42:59;;;;;;;1.50;0.30;;;19.60;52.00;;;;;;4983656;28;20030;-66
2023/12/24 05:45:25;;;;;;;0.30;0.30;;;19.60;52.00;;;;;;4978800;28;20030;-68
2023/12/24 05:47:50;;;;;;;0.30;0.30;;;19.60;52.00;;;;;;4995513;28;20026;-68
2023/12/24 05:50:16;;;;;;;0.25;0.25;;;19.60;52.00;;;;;;4981615;28;20371;-68
2023/12/24 05:52:42;;;;;;;0.30;0.30;;;19.60;52.10;;;;;;4983100;28;20080;-68
2023/12/24 05:55:09;;;;;;;0.30;0.30;;;19.60;52.00;;;;;;4981186;28;20026;-68
2023/12/24 05:57:35;;;;;;;0.30;0.30;;;19.60;52.10;;;;;;4978660;28;20069;-68
2023/12/24 06:00:01;;;;;;;0.45;0.35;;;19.60;52.10;;;;;;4980607;28;20050;-68
2023/12/24 06:02:26;;;;;;;0.20;0.20;;;19.60;52.10;;;;;;4980343;28;20034;-68
2023/12/24 06:04:52;;;;;;;0.30;0.30;;;19.60;52.20;;;;;;4998069;28;20027;-68
2023/12/24 06:07:18;;;;;;;0.30;0.22;;;19.60;52.20;;;;;;4980533;28;20498;-68
2023/12/24 06:09:43;;;;;;;0.25;0.20;;;19.60;52.20;;;;;;4981389;28;20089;-68
2023/12/24 06:12:09;;;;;;;0.38;0.38;;;19.60;52.20;;;;;;4980121;28;20027;-68
2023/12/24 06:14:35;;;;;;;0.40;0.30;;;19.60;52.20;;;;;;4980001;28;20372;-68
2023/12/24 06:17:00;;;;;;;0.45;0.30;;;19.60;52.10;;;;;;4980726;28;20399;-68
2023/12/24 06:19:26;;;;;;;0.22;0.22;;;19.60;52.10;;;;;;4981556;28;20093;-68
2023/12/24 06:21:52;;;;;;;0.30;0.30;;;19.50;52.10;;;;;;4981955;28;20497;-68
2023/12/24 06:24:20;;;;;;;0.40;0.30;;;19.60;52.20;;;;;;4980912;28;20022;-68
2023/12/24 06:26:49;;;;;;;0.20;0.20;;;19.60;52.20;;;;;;4980684;28;20123;-68
2023/12/24 06:29:15;;;;;;;0.32;0.30;;;19.60;52.30;;;;;;4979739;28;20447;-68
2023/12/24 06:31:41;;;;;;;0.30;0.30;;;19.60;52.40;;;;;;4979965;28;20069;-68
2023/12/24 06:34:07;;;;;;;0.20;0.20;;;19.50;52.40;;;;;;4978001;28;20056;-68
2023/12/24 06:36:32;;;;;;;0.43;0.30;;;19.60;52.40;;;;;;4995429;28;20033;-68
2023/12/24 06:38:58;;;;;;;0.30;0.30;;;19.60;52.40;;;;;;4981336;28;20494;-68
2023/12/24 06:41:24;;;;;;;0.30;0.30;;;19.60;52.40;;;;;;4977950;28;20031;-68
2023/12/24 06:43:50;;;;;;;0.22;0.20;;;19.50;52.40;;;;;;4982605;28;20116;-67
2023/12/24 06:46:16;;;;;;;0.20;0.20;;;19.50;52.40;;;;;;4980136;28;20034;-67
2023/12/24 06:48:41;;;;;;;0.25;0.25;;;19.50;52.40;;;;;;4978386;28;20142;-66
2023/12/24 06:51:07;;;;;;;0.20;0.20;;;19.50;52.40;;;;;;4995712;28;20450;-66
2023/12/24 06:53:34;;;;;;;0.25;0.25;;;19.50;52.40;;;;;;4981226;28;20038;-67
2023/12/24 06:56:00;;;;;;;0.30;0.30;;;19.50;52.40;;;;;;4978966;28;20456;-67
2023/12/24 06:58:25;;;;;;;0.20;0.20;;;19.50;52.40;;;;;;4995596;28;20147;-67
2023/12/24 07:00:51;;;;;;;0.30;0.30;;;19.50;52.40;;;;;;4990612;28;20026;-67
2023/12/24 07:03:17;;;;;;;0.30;0.22;;;19.50;52.40;;;;;;4980632;28;20058;-66
2023/12/24 07:05:43;;;;;;;0.45;0.38;;;19.50;52.40;;;;;;4994278;28;20394;-67
2023/12/24 07:08:09;;;;;;;0.45;0.30;;;19.50;52.40;;;;;;4996076;28;20041;-66
2023/12/24 07:10:35;;;;;;;0.20;0.20;;;19.50;52.40;;;;;;4978431;28;20110;-67
2023/12/24 07:13:01;;;;;;;0.40;0.30;;;19.50;52.40;;;;;;4980614;28;20050;-66
2023/12/24 07:15:27;;;;;;;0.63;0.47;;;19.50;52.30;;;;;;4980466;28;20030;-66
2023/12/24 07:17:52;;;;;;;0.20;0.20;;;19.50;52.30;;;;;;4978771;28;20050;-66
2023/12/24 07:20:18;;;;;;;0.65;0.32;;;19.40;52.20;;;;;;4978288;28;20033;-66
2023/12/24 07:22:44;;;;;;;0.30;0.30;;;19.50;52.30;;;;;;4978994;28;20487;-66
2023/12/24 07:25:10;;;;;;;0.30;0.30;;;19.40;52.30;;;;;;4979663;28;20030;-67
2023/12/24 07:27:35;;;;;;;0.30;0.30;;;19.50;52.30;;;;;;4979547;28;20037;-65
2023/12/24 07:30:01;;;;;;;0.20;0.20;;;19.40;52.30;;;;;;4978226;28;20114;-66
2023/12/24 07:32:27;;;;;;;0.20;0.20;;;19.40;52.30;;;;;;4978978;28;20069;-67
2023/12/24 07:34:52;;;;;;;0.40;0.30;;;19.50;52.30;;;;;;4979884;28;20035;-67
2023/12/24 07:37:18;;;;;;;0.70;0.30;;;19.40;52.30;;;;;;4979049;28;20023;-65
2023/12/24 07:39:44;;;;;;;0.43;0.40;;;19.40;52.20;;;;;;4979781;28;20057;-66
2023/12/24 07:42:09;;;;;;;0.20;0.20;;;19.40;52.20;;;;;;4981205;28;20031;-67
2023/12/24 07:44:35;;;;;;;0.73;0.40;;;19.40;52.30;;;;;;4979560;28;20501;-66
2023/12/24 07:47:01;;;;;;;0.32;0.32;;;19.40;52.30;;;;;;4980068;28;20030;-66
2023/12/24 07:49:26;;;;;;;0.55;0.30;;;19.40;52.30;;;;;;4978059;28;20396;-67
2023/12/24 07:51:52;;;;;;;0.38;0.30;;;19.40;52.30;;;;;;4979398;28;20395;-66
2023/12/24 07:54:18;;;;;;;0.22;0.22;;;19.40;52.30;;;;;;4994384;28;20463;-66
2023/12/24 07:56:44;;;;;;;0.95;0.45;;;19.40;52.30;;;;;;4978045;28;20407;-66
2023/12/24 07:59:09;;;;;;;0.40;0.40;;;19.40;52.30;;;;;;4979517;28;20490;-66
2023/12/24 08:01:37;;;;;;;0.50;0.38;;;19.40;52.30;;;;;;4979131;28;20019;-67
2023/12/24 08:04:03;;;;;;;0.50;0.40;;;19.40;52.30;;;;;;4977824;28;20019;-70
2023/12/24 08:06:29;;;;;;;0.50;0.30;;;19.40;52.30;;;;;;4993473;28;20117;-70
2023/12/24 08:08:56;;;;;;;0.20;0.20;;;19.40;52.30;;;;;;4980323;28;20601;-69
2023/12/24 08:11:21;;;;;;;0.38;0.38;;;19.40;52.30;;;;;;4995801;28;20035;-70
2023/12/24 08:13:47;;;;;;;0.80;0.40;;;19.40;52.30;;;;;;4980290;28;20078;-70
2023/12/24 08:16:13;;;;;;;0.30;0.30;;;19.40;52.30;;;;;;4981044;28;20121;-70
2023/12/24 08:18:38;;;;;;;0.85;0.30;;;19.40;52.30;;;;;;4979219;28;20586;-70
2023/12/24 08:21:07;;;;;;;0.45;0.38;;;19.40;52.30;;;;;;4977632;28;20023;-70
2023/12/24 08:23:32;;;;;;;0.50;0.35;;;19.40;52.30;;;;;;4978172;28;20038;-69
2023/12/24 08:25:58;;;;;;;0.30;0.30;;;19.40;52.30;;;;;;4981804;28;20085;-70
2023/12/24 08:28:23;;;;;;;0.40;0.30;;;19.40;52.30;;;;;;4979491;28;20041;-70
2023/12/24 08:30:49;;;;;;;0.40;0.40;;;19.40;52.30;;;;;;4977510;28;20034;-70
2023/12/24 08:33:15;;;;;;;0.30;0.30;;;19.30;52.20;;;;;;4979974;28;20086;-70
2023/12/24 08:35:40;;;;;;;0.95;0.50;;;19.40;52.30;;;;;;4980565;28;20543;-70
2023/12/24 08:38:06;;;;;;;0.40;0.40;;;19.40;52.30;;;;;;4979267;28;20027;-70
2023/12/24 08:40:31;;;;;;;0.47;0.40;;;19.40;52.30;;;;;;4994967;28;20038;-70
2023/12/24 08:42:57;;;;;;;0.63;0.40;;;19.30;52.20;;;;;;4978194;28;20035;-70
2023/12/24 08:45:23;;;;;;;0.75;0.52;;;19.30;52.20;;;;;;4978359;28;20086;-68
2023/12/24 08:47:49;;;;;;;0.50;0.30;;;19.30;52.20;;;;;;4978266;28;20105;-68
2023/12/24 08:50:15;;;;;;;0.45;0.45;;;19.30;52.20;;;;;;4980819;28;20036;-68
2023/12/24 08:52:41;;;;;;;1.02;0.30;;;19.30;52.30;;;;;;4982088;28;20402;-68
2023/12/24 08:55:07;;;;;;;0.52;0.40;;;19.30;52.30;;;;;;4999495;28;20145;-68
2023/12/24 08:57:33;;;;;;;1.20;0.52;;;19.30;52.30;;;;;;4983773;28;20085;-68
2023/12/24 08:59:58;;;;;;;1.52;0.50;;;19.30;52.30;;;;;;4997342;28;20043;-68
2023/12/24 09:02:24;;;;;;;0.30;0.30;;;19.30;52.30;;;;;;4982594;28;20066;-68
2023/12/24 09:04:49;;;;;;;0.30;0.30;;;19.30;52.30;;;;;;4980411;28;20034;-70
2023/12/24 09:07:16;;;;;;;0.40;0.40;;;19.30;52.40;;;;;;4995654;28;20122;-70
2023/12/24 09:09:42;;;;;;;0.70;0.40;;;19.30;52.30;;;;;;4982049;28;20054;-70
2023/12/24 09:12:08;;;;;;;0.52;0.32;;;19.30;52.30;;;;;;4983924;28;20053;-69
2023/12/24 09:14:34;;;;;;;0.30;0.30;;;19.30;52.30;;;;;;4982710;28;20495;-67
2023/12/24 09:16:59;;;;;;;0.32;0.32;;;19.30;52.30;;;;;;4981289;28;20038;-67
2023/12/24 09:19:25;;;;;;;0.40;0.40;;;19.30;52.30;;;;;;4982548;28;20031;-67
2023/12/24 09:21:51;;;;;;;0.43;0.38;;;19.30;52.30;;;;;;4979260;28;20023;-66
2023/12/24 09:24:16;;;;;;;1.08;0.57;;;19.20;52.30;;;;;;4997537;28;20509;-66
2023/12/24 09:26:42;;;;;;;0.45;0.38;;;19.30;52.30;;;;;;4981832;28;20027;-67
2023/12/24 09:29:11;;;;;;;0.70;0.50;;;19.30;52.40;;;;;;4982840;28;20035;-68
2023/12/24 09:31:39;;;;;;;;;;;19.30;52.30;;;;;;4979724;28;20466;-66
2023/12/24 09:34:06;;;;;;;0.65;0.50;;;19.30;52.50;;;;;;4981784;28;20376;-67
2023/12/24 09:36:31;;;;;;;0.40;0.40;;;19.20;52.50;;;;;;4981225;28;20043;-67
2023/12/24 09:38:57;;;;;;;0.70;0.40;;;19.30;52.90;;;;;;4982423;28;20034;-66
2023/12/24 09:41:22;;;;;;;0.75;0.45;;;19.30;53.10;;;;;;4996817;28;20514;-66
2023/12/24 09:43:49;;;;;;;0.73;0.40;;;19.30;53.20;;;;;;4981083;28;20027;-66
2023/12/24 09:46:14;;;;;;;1.08;0.30;;;19.40;53.30;;;;;;4981902;28;20037;-67
2023/12/24 09:48:40;;;;;;;0.45;0.40;;;19.40;53.30;;;;;;4981741;28;20438;-66
2023/12/24 09:51:08;;;;;;;1.08;0.52;;;19.40;53.30;;;;;;4994502;28;20035;-67
2023/12/24 09:53:33;;;;;;;0.60;0.50;;;19.50;53.40;;;;;;4980903;28;20046;-66
2023/12/24 09:55:59;;;;;;;0.70;0.40;;;19.50;53.50;;;;;;4978482;28;20486;-66
2023/12/24 09:58:25;;;;;;;0.95;0.60;;;19.50;53.50;;;;;;4980152;28;20109;-66
2023/12/24 10:00:50;;;;;;;0.30;0.30;;;19.50;53.40;;;;;;4977456;28;20042;-67
2023/12/24 10:03:16;;;;;;;0.45;0.40;;;19.50;53.50;;;;;;4981604;28;20376;-66
2023/12/24 10:06:07;;;;;;;0.50;0.40;;;19.60;53.50;;;;;;4980786;28;20041;-66
2023/12/24 10:08:36;;;;;;;0.30;0.30;;;19.60;53.60;;;;;;4982407;28;20030;-66
2023/12/24 10:11:21;;;;;;;0.70;0.50;;;19.60;53.60;;;;;;4981639;28;20041;-66
2023/12/24 10:13:56;;;;;;;0.60;0.50;;;19.70;53.70;;;;;;4981206;28;20033;-67
2023/12/24 10:16:22;;;;;;;0.40;0.35;;;19.70;53.60;;;;;;4981256;28;20499;-67
2023/12/24 10:18:53;;;;;;;0.55;0.35;;;19.70;53.60;;;;;;4981115;28;20118;-66
2023/12/24 10:21:19;;;;;;;0.55;0.30;;;19.70;53.60;;;;;;4978635;28;20087;-66
2023/12/24 10:23:45;;;;;;;0.52;0.40;;;19.80;53.60;;;;;;4978992;28;20502;-67
2023/12/24 10:26:12;;;;;;;0.43;0.40;;;19.80;53.60;;;;;;4996530;28;20035;-66
2023/12/24 10:28:49;;;;;;;0.50;0.40;;;19.80;53.50;;;;;;4980639;28;20372;-67
2023/12/24 10:31:14;;;;;;;0.63;0.40;;;19.80;53.60;;;;;;4981899;28;20538;-67
2023/12/24 10:33:40;;;;;;;0.40;0.40;;;19.80;53.50;;;;;;4981580;28;20026;-65
2023/12/24 10:36:07;;;;;;;0.52;0.50;;;19.80;53.50;;;;;;4980367;28;20498;-66
2023/12/24 10:38:34;;;;;;;0.85;0.40;;;19.80;53.50;;;;;;4995366;28;20117;-65
2023/12/24 10:41:00;;;;;;;0.30;0.30;;;19.80;53.50;;;;;;4979722;28;20115;-66
2023/12/24 10:43:26;;;;;;;0.52;0.38;;;19.70;53.50;;;;;;4981200;28;20041;-66
2023/12/24 10:45:52;;;;;;;0.43;0.40;;;19.70;53.40;;;;;;4979874;28;20043;-66
2023/12/24 10:48:19;;;;;;;0.30;0.30;;;19.80;54.20;;;;;;4979981;28;20022;-66
2023/12/24 10:50:45;;;;;;;0.52;0.38;;;19.80;53.70;;;;;;4978816;28;20053;-67
2023/12/24 10:53:11;;;;;;;0.63;0.40;;;19.80;53.60;;;;;;4978500;28;20034;-66
2023/12/24 10:55:39;;;;;;;0.70;0.45;;;19.90;53.80;;;;;;4980955;28;20505;-66
2023/12/24 10:58:26;;;;;;;0.40;0.32;;;19.90;53.70;;;;;;4978447;28;20046;-65
2023/12/24 11:00:52;;;;;;;0.30;0.30;;;19.90;53.80;;;;;;4979671;28;20502;-67
2023/12/24 11:03:42;;;;;;;0.35;0.32;;;19.90;53.70;;;;;;4980953;28;20033;-67
2023/12/24 11:06:09;;;;;;;0.45;0.40;;;19.90;53.70;;;;;;4980016;28;20031;-70
2023/12/24 11:08:34;;;;;;;0.52;0.40;;;19.90;53.60;;;;;;4980850;28;20081;-70
2023/12/24 11:11:06;;;;;;;0.30;0.30;;;19.90;53.70;;;;;;4979874;28;20030;-69
2023/12/24 11:13:32;;;;;;;0.40;0.40;;;19.90;53.70;;;;;;4981231;28;20970;-70
2023/12/24 11:16:03;;;;;;;0.35;0.35;;;19.90;53.70;;;;;;4982101;28;20038;-66
2023/12/24 11:18:48;;;;;;;0.45;0.45;;;19.90;53.60;;;;;;4978503;28;20026;-66
2023/12/24 11:21:19;;;;;;;0.47;0.40;;;19.90;53.60;;;;;;4977770;28;20090;-67
2023/12/24 11:24:12;;;;;;;0.55;0.50;;;19.90;53.50;;;;;;4978722;28;20022;-66
2023/12/24 11:26:48;;;;;;;0.60;0.47;;;19.90;53.40;;;;;;4979165;28;20026;-66
2023/12/24 11:29:47;;;;;;;0.80;0.50;;;19.90;53.40;;;;;;4979679;28;20033;-66
2023/12/24 11:32:25;;;;;;;;;;;19.90;53.50;;;;;;4980889;28;20069;-66
2023/12/24 11:34:55;;;;;;;0.43;0.30;;;19.90;54.10;;;;;;4979436;28;19913;-69
2023/12/24 11:37:30;;;;;;;0.30;0.30;;;20.00;53.50;;;;;;4980325;28;20114;-70
2023/12/24 11:40:03;;;;;;;0.70;0.50;;;20.00;53.40;;;;;;4980383;28;20026;-70
2023/12/24 11:42:50;;;;;;;0.93;0.77;;;20.00;53.30;;;;;;4980145;28;20045;-70
2023/12/24 11:45:32;;;;;;;1.02;0.50;;;20.00;53.20;;;;;;4978527;28;20027;-70
2023/12/24 11:47:57;;;;;;;0.75;0.40;;;20.00;53.20;;;;;;4980021;28;20729;-70
2023/12/24 11:50:24;;;;;;;0.50;0.40;;;20.00;53.10;;;;;;4978734;28;20077;-70
2023/12/24 11:52:50;;;;;;;0.30;0.30;;;20.00;53.10;;;;;;4977755;28;20038;-70
2023/12/24 11:55:20;;;;;;;0.40;0.40;;;20.00;53.10;;;;;;4993005;28;20556;-70
2023/12/24 11:57:48;;;;;;;0.57;0.40;;;19.90;53.10;;;;;;4979677;28;20102;-70
2023/12/24 12:00:23;;;;;;;0.85;0.52;;;20.00;53.10;;;;;;4979069;28;20019;-69
2023/12/24 12:02:57;;;;;;;0.47;0.38;;;19.90;53.00;;;;;;4979043;28;20030;-70
2023/12/24 12:05:24;;;;;;;0.40;0.40;;;19.90;52.90;;;;;;4977254;28;20030;-70
2023/12/24 12:07:50;;;;;;;0.47;0.40;;;19.90;52.90;;;;;;4979384;28;20584;-70
2023/12/24 12:10:17;;;;;;;0.57;0.40;;;19.90;52.90;;;;;;4980374;28;20081;-70
2023/12/24 12:12:43;;;;;;;0.52;0.40;;;20.00;52.90;;;;;;4978580;28;20038;-70
2023/12/24 12:15:10;;;;;;;0.40;0.40;;;20.00;53.00;;;;;;4979890;28;20030;-70
2023/12/24 12:17:36;;;;;;;0.40;0.40;;;19.90;53.00;;;;;;4994354;28;20054;-70
2023/12/24 12:20:01;;;;;;;0.40;0.35;;;20.00;53.10;;;;;;4978030;28;20031;-70
2023/12/24 12:22:27;;;;;;;0.38;0.38;;;20.00;53.10;;;;;;4979674;28;20034;-70
2023/12/24 12:24:52;;;;;;;0.60;0.50;;;20.00;53.10;;;;;;4984067;28;20423;-67
2023/12/24 12:27:18;;;;;;;0.30;0.30;;;20.00;53.00;;;;;;4984092;28;20037;-67
2023/12/24 12:29:44;;;;;;;0.52;0.50;;;20.10;53.00;;;;;;4985173;28;20030;-67
2023/12/24 12:32:09;;;;;;;0.40;0.40;;;20.10;53.00;;;;;;4984171;28;20398;-67
2023/12/24 12:34:35;;;;;;;0.55;0.40;;;20.10;52.90;;;;;;4981935;28;20799;-66
2023/12/24 12:37:01;;;;;;;0.57;0.50;;;20.10;52.90;;;;;;4981468;28;20027;-67
2023/12/24 12:39:26;;;;;;;0.75;0.40;;;20.10;53.40;;;;;;4982148;28;20027;-65
2023/12/24 12:41:52;;;;;;;0.45;0.45;;;20.10;53.20;;;;;;4984886;28;20042;-66
2023/12/24 12:44:18;;;;;;;0.88;0.50;;;20.10;53.60;;;;;;4982653;28;20022;-67
2023/12/24 12:46:43;;;;;;;0.85;0.43;;;20.10;53.70;;;;;;4998504;28;20029;-67